Time;durP1;ratioP1;P1;durP2;ratioP2;P2;SDS_P1;SDS_P2;PMS_P1;PMS_P2;Temp;Humidity;BMP_temperature;BMP_pressure;BME280_temperature;BME280_humidity;BME280_pressure;Samples;Min_cycle;Max_cycle;Signal;HPM_P1;HPM_P2
2022/08/24 00:01:13;;;;;;;1.50;1.40;;;;;;;25.16;60.08;97698.25;5066816;28;20365;-23
2022/08/24 00:03:40;;;;;;;1.50;1.40;;;;;;;25.17;59.84;97697.41;5068197;28;20725;-23
2022/08/24 00:06:08;;;;;;;1.73;1.60;;;;;;;25.10;60.42;97681.84;5061766;28;20698;-23
2022/08/24 00:08:35;;;;;;;2.00;1.80;;;;;;;25.16;60.08;97693.94;5061667;28;20597;-24
2022/08/24 00:11:02;;;;;;;1.80;1.70;;;;;;;25.16;60.04;97704.22;5059108;28;20220;-23
2022/08/24 00:13:29;;;;;;;2.03;1.83;;;;;;;25.11;59.95;97686.16;5065971;28;20258;-23
2022/08/24 00:15:59;;;;;;;1.60;1.50;;;;;;;25.17;60.14;97687.09;5054132;28;20208;-23
2022/08/24 00:18:25;;;;;;;1.57;1.47;;;;;;;25.15;59.92;97681.94;5062482;28;20287;-23
2022/08/24 00:20:52;;;;;;;1.60;1.50;;;;;;;25.09;59.95;97679.25;5057774;28;20287;-23
2022/08/24 00:23:19;;;;;;;1.60;1.50;;;;;;;25.16;60.36;97686.22;5053446;28;20292;-23
2022/08/24 00:25:45;;;;;;;1.70;1.60;;;;;;;25.16;60.17;97690.53;5062727;28;20255;-23
2022/08/24 00:28:12;;;;;;;1.60;1.50;;;;;;;25.13;59.97;97684.47;5059286;28;20719;-24
2022/08/24 00:30:38;;;;;;;1.63;1.53;;;;;;;25.16;60.14;97693.09;5066677;28;20219;-23
2022/08/24 00:33:06;;;;;;;1.40;1.30;;;;;;;25.14;60.06;97691.34;5054840;28;20311;-23
2022/08/24 00:35:33;;;;;;;1.80;1.70;;;;;;;25.16;60.24;97688.81;5067673;28;20779;-23
2022/08/24 00:37:59;;;;;;;1.60;1.50;;;;;;;25.16;59.95;97701.66;5065876;28;20321;-23
2022/08/24 00:40:35;;;;;;;1.80;1.70;;;;;;;25.16;60.24;97690.53;5066657;28;20748;-22
2022/08/24 03:04:26;;;;;;;1.60;1.50;;;;;;;25.17;61.38;97684.53;5065852;28;20216;-23
2022/08/24 03:06:53;;;;;;;1.70;1.60;;;;;;;25.17;60.79;97677.69;5062277;28;20207;-23
2022/08/24 03:09:20;;;;;;;2.03;1.83;;;;;;;25.17;60.91;97686.25;5063316;28;20610;-23
2022/08/24 03:11:49;;;;;;;1.90;1.80;;;;;;;25.17;61.39;97690.56;5063322;28;20575;-22
2022/08/24 03:14:16;;;;;;;1.70;1.57;;;;;;;25.19;60.92;97690.59;5065119;28;20647;-23
2022/08/24 03:16:42;;;;;;;1.83;1.73;;;;;;;25.19;61.14;97690.59;5059918;28;20228;-23
2022/08/24 03:19:09;;;;;;;1.70;1.60;;;;;;;25.19;61.13;97685.44;5067001;28;20291;-22
2022/08/24 03:21:36;;;;;;;1.80;1.70;;;;;;;25.13;60.90;97684.47;5070264;28;20323;-23
2022/08/24 03:24:02;;;;;;;1.93;1.73;;;;;;;25.19;60.98;97691.44;5088704;22;20232;-31
2022/08/24 03:26:29;;;;;;;2.40;1.60;;;;;;;25.19;60.89;97694.00;5088845;28;20302;-31
2022/08/24 03:28:55;;;;;;;1.90;1.80;;;;;;;25.20;61.04;97684.59;5085020;28;20283;-31
2022/08/24 03:31:24;;;;;;;1.80;1.70;;;;;;;25.19;61.39;97685.44;5084923;28;20219;-31
2022/08/24 03:33:50;;;;;;;1.93;1.83;;;;;;;25.20;61.01;97687.16;5089427;28;20235;-31
2022/08/24 03:36:17;;;;;;;1.90;1.80;;;;;;;25.19;60.94;97694.00;5064123;28;20323;-31
2022/08/24 03:38:44;;;;;;;1.80;1.70;;;;;;;25.19;61.17;97686.28;5055161;28;20287;-31
2022/08/24 03:41:10;;;;;;;1.70;1.60;;;;;;;25.11;61.68;97677.59;5056133;28;20221;-32
2022/08/24 03:43:47;;;;;;;2.00;1.90;;;;;;;25.19;61.02;97691.44;5055048;28;20208;-31
2022/08/24 03:46:20;;;;;;;1.97;1.87;;;;;;;25.19;61.02;97696.56;5055450;28;20199;-31
2022/08/24 03:48:47;;;;;;;1.80;1.70;;;;;;;25.20;61.14;97697.44;5067824;28;20264;-31
2022/08/24 03:51:16;;;;;;;1.83;1.73;;;;;;;25.19;61.43;97696.56;5072110;28;20300;-31
2022/08/24 03:53:43;;;;;;;2.07;1.93;;;;;;;25.19;61.34;97713.75;5060776;28;20246;-31
2022/08/24 03:56:10;;;;;;;1.90;1.80;;;;;;;25.13;61.11;97697.34;5061998;28;20710;-31
2022/08/24 03:58:37;;;;;;;2.03;1.93;;;;;;;25.20;60.95;97703.47;5059885;28;20240;-31
2022/08/24 04:01:03;;;;;;;1.70;1.60;;;;;;;25.18;60.90;97700.00;5066931;28;20231;-32
2022/08/24 04:03:34;;;;;;;1.87;1.77;;;;;;;25.14;61.39;97698.22;5062777;28;20204;-31
2022/08/24 04:06:01;;;;;;;1.80;1.70;;;;;;;25.20;61.24;97702.59;5069504;28;20292;-31
2022/08/24 04:08:28;;;;;;;1.80;1.70;;;;;;;25.20;61.00;97702.59;5060163;28;20292;-31
2022/08/24 04:10:55;;;;;;;2.00;1.90;;;;;;;25.19;61.03;97709.44;5066373;28;20315;-31
2022/08/24 04:13:22;;;;;;;2.00;1.80;;;;;;;25.20;60.96;97702.59;5065849;28;20204;-31
2022/08/24 04:15:50;;;;;;;1.87;1.77;;;;;;;25.20;60.84;97707.75;5067646;28;20256;-31
2022/08/24 04:18:16;;;;;;;2.13;1.83;;;;;;;25.19;60.85;97712.00;5064645;28;20231;-31
2022/08/24 04:20:43;;;;;;;1.70;1.60;;;;;;;25.20;61.14;97712.88;5069389;28;20291;-31
2022/08/24 04:23:10;;;;;;;1.80;1.70;;;;;;;25.13;61.06;97704.19;5059373;28;20224;-31
2022/08/24 04:25:45;;;;;;;1.70;1.60;;;;;;;25.17;60.83;97712.81;5063230;28;20246;-31
2022/08/24 04:28:13;;;;;;;2.10;1.90;;;;;;;25.19;60.81;97714.56;5063159;28;20671;-31
2022/08/24 04:30:40;;;;;;;1.70;1.60;;;;;;;25.20;60.98;97712.88;5064986;28;20212;-31
2022/08/24 04:33:09;;;;;;;2.87;1.80;;;;;;;25.19;61.00;97714.56;5061196;28;20243;-31
2022/08/24 04:35:39;;;;;;;1.87;1.77;;;;;;;25.19;61.24;97714.56;5058032;28;20746;-32
2022/08/24 04:38:06;;;;;;;4.17;2.13;;;;;;;25.17;61.11;97713.72;5066957;28;20288;-31
2022/08/24 04:40:33;;;;;;;3.30;2.30;;;;;;;25.19;61.09;97719.72;5063615;28;20232;-32
2022/08/24 04:43:01;;;;;;;2.60;2.40;;;;;;;25.19;60.69;97714.56;5069682;28;20686;-31
2022/08/24 04:45:30;;;;;;;2.80;2.47;;;;;;;25.20;60.74;97715.47;5064550;28;20597;-31
2022/08/24 04:47:57;;;;;;;4.70;2.70;;;;;;;25.19;60.84;97724.03;5063331;28;20239;-31
2022/08/24 04:50:23;;;;;;;3.47;3.17;;;;;;;25.20;60.17;97721.47;5070293;28;20239;-31
2022/08/24 04:52:50;;;;;;;3.43;2.97;;;;;;;25.20;60.63;97724.06;5063170;28;20789;-31
2022/08/24 04:55:17;;;;;;;5.07;2.90;;;;;;;25.17;60.26;97725.69;5070046;28;20315;-31
2022/08/24 04:57:43;;;;;;;4.27;3.87;;;;;;;25.17;60.47;97722.28;5058191;28;20723;-32
2022/08/24 05:00:10;;;;;;;4.13;3.20;;;;;;;25.19;60.49;97727.44;5067662;28;20235;-31
2022/08/24 05:02:38;;;;;;;6.50;4.00;;;;;;;25.19;60.65;97727.44;5066943;28;20231;-32
2022/08/24 05:05:11;;;;;;;4.13;3.73;;;;;;;25.17;60.34;97725.69;5057774;28;20602;-31
2022/08/24 05:07:38;;;;;;;4.00;3.67;;;;;;;25.19;60.54;97734.31;5063855;28;20247;-31
2022/08/24 05:10:05;;;;;;;9.10;4.47;;;;;;;25.20;60.47;97744.63;5061047;28;20232;-31
2022/08/24 05:12:34;;;;;;;4.87;4.23;;;;;;;25.19;60.65;97737.72;5066981;28;20215;-32
2022/08/24 05:15:00;;;;;;;5.57;4.60;;;;;;;25.19;60.57;97745.44;5055020;28;20266;-32
2022/08/24 05:17:27;;;;;;;5.57;4.33;;;;;;;25.20;60.98;97741.19;5063931;28;20208;-31
2022/08/24 05:19:54;;;;;;;5.73;4.33;;;;;;;25.19;60.99;97739.47;5061242;28;20287;-31
2022/08/24 05:22:20;;;;;;;5.10;4.53;;;;;;;25.12;60.89;97730.75;5066485;28;20291;-32
2022/08/24 05:24:47;;;;;;;4.50;4.10;;;;;;;25.20;61.03;97739.50;5066619;28;20272;-31
2022/08/24 05:27:14;;;;;;;4.17;3.77;;;;;;;25.20;61.15;97746.31;5065126;28;20228;-31
2022/08/24 05:29:44;;;;;;;7.13;5.40;;;;;;;25.20;61.17;97742.06;5065798;28;20944;-31
2022/08/24 05:32:11;;;;;;;9.20;5.60;;;;;;;25.20;61.45;97751.47;5061486;28;20255;-32
2022/08/24 05:34:38;;;;;;;7.63;5.60;;;;;;;25.20;61.74;97759.19;5061864;28;20286;-31
2022/08/24 05:37:04;;;;;;;8.53;5.63;;;;;;;25.14;61.81;97747.94;5069429;28;20235;-31
2022/08/24 05:39:31;;;;;;;5.57;4.77;;;;;;;25.20;61.44;97761.75;5062649;28;20242;-31
2022/08/24 05:41:58;;;;;;;7.60;4.83;;;;;;;25.20;61.64;97759.19;5070648;28;20196;-31
2022/08/24 05:44:25;;;;;;;6.30;4.17;;;;;;;25.19;61.63;97760.03;5066583;28;20270;-31
2022/08/24 05:46:57;;;;;;;7.10;4.60;;;;;;;25.20;61.33;97764.34;5066663;28;20575;-31
2022/08/24 05:49:24;;;;;;;5.70;4.00;;;;;;;25.19;61.65;97757.47;5064299;28;20203;-31
2022/08/24 05:51:51;;;;;;;6.80;4.73;;;;;;;25.19;62.00;97766.03;5064573;28;20319;-31
2022/08/24 05:54:17;;;;;;;6.17;4.70;;;;;;;25.19;62.05;97778.88;5069872;28;20683;-31
2022/08/24 05:56:44;;;;;;;4.77;4.27;;;;;;;25.17;62.29;97769.41;5068650;28;20246;-31
2022/08/24 05:59:11;;;;;;;6.80;5.03;;;;;;;25.20;62.55;97772.94;5067154;28;20231;-31
2022/08/24 06:01:38;;;;;;;4.90;4.40;;;;;;;25.19;62.41;97773.75;5066732;28;20276;-31
2022/08/24 06:04:11;;;;;;;6.63;3.80;;;;;;;25.20;62.30;97777.19;5068875;28;20239;-31
2022/08/24 06:06:37;;;;;;;12.00;4.20;;;;;;;25.20;61.86;97775.50;5069640;28;20240;-32
2022/08/24 06:09:04;;;;;;;5.07;4.27;;;;;;;25.20;62.05;97772.06;5070130;28;20290;-31
2022/08/24 06:11:36;;;;;;;5.30;3.80;;;;;;;25.19;61.70;97773.75;5070105;28;20701;-31
2022/08/24 06:14:08;;;;;;;4.13;3.73;;;;;;;25.19;62.10;97776.31;5072129;28;20325;-31
2022/08/24 06:16:38;;;;;;;4.93;3.97;;;;;;;25.19;62.02;97776.31;5074097;28;20196;-31
2022/08/24 06:19:05;;;;;;;5.63;3.57;;;;;;;25.19;61.95;97768.59;5072807;28;20196;-32
2022/08/24 06:21:32;;;;;;;4.77;3.97;;;;;;;25.19;62.12;97766.03;5069191;28;20227;-31
2022/08/24 06:23:59;;;;;;;3.93;3.37;;;;;;;25.19;61.63;97770.31;5073131;28;20318;-31
2022/08/24 06:29:16;;;;;;;4.23;3.50;;;;;;;25.19;61.62;97771.16;5055112;28;20308;-31
2022/08/24 06:31:44;;;;;;;3.97;3.53;;;;;;;25.20;62.05;97769.47;5054275;28;20340;-31
2022/08/24 06:34:12;;;;;;;5.53;3.47;;;;;;;25.19;61.81;97760.03;5055913;28;20225;-31
2022/08/24 06:36:39;;;;;;;3.90;3.50;;;;;;;25.19;61.34;97767.75;5069198;28;20247;-31
2022/08/24 06:39:07;;;;;;;4.63;3.83;;;;;;;25.17;61.87;97768.56;5063358;28;20287;-31
2022/08/24 06:41:36;;;;;;;3.83;3.50;;;;;;;25.20;62.05;97766.91;5072262;28;20200;-31
2022/08/24 06:44:03;;;;;;;3.60;3.30;;;;;;;25.18;61.95;97764.31;5065865;28;20287;-31
2022/08/24 06:46:29;;;;;;;5.57;3.67;;;;;;;25.20;62.27;97772.06;5055817;28;20750;-31
2022/08/24 06:48:58;;;;;;;5.80;3.47;;;;;;;25.16;62.07;97760.81;5052371;28;20651;-31
2022/08/24 06:51:25;;;;;;;3.93;3.40;;;;;;;25.20;62.08;97770.34;5054442;28;20224;-31
2022/08/24 06:53:53;;;;;;;4.00;3.23;;;;;;;25.20;61.73;97778.06;5058800;28;20274;-31
2022/08/24 06:56:19;;;;;;;3.97;3.60;;;;;;;25.20;61.79;97779.75;5054141;28;20353;-31
2022/08/24 06:58:46;;;;;;;3.73;3.30;;;;;;;25.20;61.69;97790.94;5056870;28;20649;-31
2022/08/24 07:01:15;;;;;;;3.60;3.30;;;;;;;25.20;61.97;97788.34;5064110;28;20231;-32
2022/08/24 07:03:43;;;;;;;4.10;3.53;;;;;;;24.55;61.99;97679.06;5060874;28;20240;-31
2022/08/24 07:06:11;;;;;;;3.27;2.90;;;;;;;25.21;61.54;97796.91;5068408;28;20307;-31
2022/08/24 07:08:37;;;;;;;3.20;2.90;;;;;;;25.20;61.75;97790.94;5072303;28;20258;-31
2022/08/24 07:11:04;;;;;;;3.47;3.17;;;;;;;25.19;61.64;97785.75;5071739;28;20224;-32
2022/08/24 07:13:31;;;;;;;3.40;3.10;;;;;;;25.18;61.81;97787.44;5063088;28;20280;-31
2022/08/24 07:15:58;;;;;;;3.50;3.20;;;;;;;25.17;61.82;97784.84;5065487;28;20228;-31
2022/08/24 07:18:24;;;;;;;3.50;3.20;;;;;;;25.20;61.87;97790.94;5062636;28;20200;-31
2022/08/24 07:20:52;;;;;;;4.17;3.73;;;;;;;25.19;61.95;97790.91;5071957;28;20204;-31
2022/08/24 07:23:19;;;;;;;3.53;3.23;;;;;;;25.19;62.00;97786.59;5065673;28;20596;-31
2022/08/24 07:25:46;;;;;;;3.37;3.00;;;;;;;25.20;61.72;97788.34;5063487;28;20312;-31
2022/08/24 07:28:16;;;;;;;3.37;3.07;;;;;;;25.17;61.97;97785.72;5066951;28;20304;-31
2022/08/24 07:30:57;;;;;;;3.70;3.30;;;;;;;25.20;61.69;97783.22;5064327;28;20229;-31
2022/08/24 07:33:23;;;;;;;3.73;3.33;;;;;;;25.19;61.77;97778.88;5070117;28;20230;-32
2022/08/24 07:35:50;;;;;;;3.70;3.20;;;;;;;25.17;62.15;97781.44;5065837;28;20260;-31
2022/08/24 07:38:21;;;;;;;3.80;3.50;;;;;;;25.20;61.97;97788.34;5065795;28;20205;-32
2022/08/24 07:40:48;;;;;;;3.03;2.83;;;;;;;25.17;61.73;97781.44;5071332;28;20228;-31
2022/08/24 07:43:34;;;;;;;3.20;2.90;;;;;;;25.19;61.74;97786.59;5066417;28;20210;-31
2022/08/24 07:46:06;;;;;;;3.87;3.47;;;;;;;25.20;61.66;97787.47;5062351;28;20224;-31
2022/08/24 07:48:34;;;;;;;3.93;2.70;;;;;;;25.17;62.03;97779.72;5067295;28;20205;-31
2022/08/24 07:51:08;;;;;;;2.90;2.70;;;;;;;25.17;61.83;97778.84;5067742;28;20578;-31
2022/08/24 07:53:35;;;;;;;3.10;2.90;;;;;;;25.17;62.14;97783.16;5067739;28;20302;-31
2022/08/24 07:56:19;;;;;;;3.20;2.90;;;;;;;25.20;61.89;97787.47;5066149;28;20292;-32
2022/08/24 07:58:46;;;;;;;3.43;3.13;;;;;;;25.20;62.13;97785.78;5067501;28;20239;-31
2022/08/24 08:01:12;;;;;;;3.10;2.83;;;;;;;25.20;61.72;97788.34;5068119;28;20218;-31
2022/08/24 08:03:40;;;;;;;3.40;3.10;;;;;;;25.20;62.23;97788.34;5067799;28;20201;-31
2022/08/24 08:06:07;;;;;;;3.47;3.17;;;;;;;25.20;61.69;97788.34;5056435;28;20224;-31
2022/08/24 08:08:42;;;;;;;3.40;3.10;;;;;;;25.20;62.07;97785.78;5060357;28;20510;-31
2022/08/24 08:11:08;;;;;;;3.00;2.70;;;;;;;25.20;61.95;97783.22;5060765;28;20626;-32
2022/08/24 08:13:36;;;;;;;3.40;3.10;;;;;;;25.20;61.69;97774.63;5065045;28;20718;-31
2022/08/24 08:16:03;;;;;;;2.80;2.60;;;;;;;25.20;61.72;97779.75;5069839;28;20220;-31
2022/08/24 08:18:34;;;;;;;3.40;3.10;;;;;;;25.20;61.77;97775.50;5066814;28;20200;-31
2022/08/24 08:21:03;;;;;;;3.37;3.00;;;;;;;25.20;61.95;97774.63;5064854;28;20295;-31
2022/08/24 08:26:19;;;;;;;2.73;2.53;;;;;;;25.20;61.81;97774.63;5056171;28;20295;-31
2022/08/24 08:28:45;;;;;;;3.27;2.97;;;;;;;25.21;61.48;97773.78;5063892;28;20205;-31
2022/08/24 08:31:12;;;;;;;3.53;3.13;;;;;;;25.20;61.76;97774.63;5063995;28;20292;-31
2022/08/24 08:33:39;;;;;;;4.13;3.10;;;;;;;25.20;61.69;97772.06;5060103;28;20276;-31
2022/08/24 08:36:08;;;;;;;3.57;3.27;;;;;;;25.20;61.93;97766.91;5061680;28;20312;-31
2022/08/24 08:38:35;;;;;;;3.30;3.00;;;;;;;25.21;61.48;97763.47;5064753;28;20239;-32
2022/08/24 08:41:17;;;;;;;3.13;2.83;;;;;;;25.19;61.61;97765.19;5070630;28;20200;-31
2022/08/24 08:43:59;;;;;;;3.20;2.87;;;;;;;25.14;61.85;97758.22;5063620;28;20207;-31
2022/08/24 08:47:00;;;;;;;3.00;2.80;;;;;;;25.20;61.40;97764.34;5050125;28;20281;-31
2022/08/24 08:50:00;;;;;;;3.10;2.80;;;;;;;25.11;61.78;97754.75;5063662;28;20650;-31
2022/08/24 08:53:03;;;;;;;3.30;3.00;;;;;;;25.20;61.74;97772.06;5067791;28;20779;-31
2022/08/24 08:55:42;;;;;;;3.70;3.10;;;;;;;25.20;61.45;97769.47;5065858;28;20262;-31
2022/08/24 08:58:13;;;;;;;3.07;2.70;;;;;;;25.17;61.41;97767.72;5069951;28;20277;-31
2022/08/24 09:01:02;;;;;;;3.30;3.00;;;;;;;25.20;61.65;97774.63;5068457;28;20630;-32
2022/08/24 09:03:36;;;;;;;3.03;2.73;;;;;;;25.19;61.62;97773.75;5063792;28;20207;-31
2022/08/24 09:06:34;;;;;;;3.00;2.80;;;;;;;25.19;61.98;97783.19;5065250;28;20648;-31
2022/08/24 09:09:06;;;;;;;2.77;2.53;;;;;;;25.19;61.72;97773.75;5067565;28;20243;-31
2022/08/24 09:11:42;;;;;;;2.87;2.67;;;;;;;25.19;61.90;97778.88;5064742;28;20228;-31
2022/08/24 09:14:09;;;;;;;2.67;2.47;;;;;;;25.19;61.85;97771.16;5052242;28;20284;-31
2022/08/24 09:16:57;;;;;;;3.20;2.63;;;;;;;25.17;62.11;97766.00;5064989;28;20287;-31
2022/08/24 09:20:06;;;;;;;2.77;2.57;;;;;;;25.16;62.06;97776.25;5057296;28;20295;-31
2022/08/24 09:22:38;;;;;;;2.80;2.60;;;;;;;25.16;61.91;97778.84;5043798;28;20203;-31
2022/08/24 09:25:09;;;;;;;2.80;2.60;;;;;;;25.17;62.16;97778.00;5060293;28;20260;-30
2022/08/24 09:28:00;;;;;;;2.73;2.53;;;;;;;25.17;62.28;97777.13;5061817;28;20323;-30
2022/08/24 09:30:51;;;;;;;2.97;2.77;;;;;;;25.17;61.90;97784.00;5060924;28;20201;-30
2022/08/24 09:33:24;;;;;;;5.70;2.93;;;;;;;25.17;61.68;97778.84;5042973;28;20239;-30
2022/08/24 09:36:00;;;;;;;3.17;2.60;;;;;;;25.18;61.85;97772.03;5059672;28;20726;-30
2022/08/24 09:38:57;;;;;;;3.03;2.73;;;;;;;25.19;61.97;97775.47;5066860;28;20231;-30
2022/08/24 09:41:47;;;;;;;3.00;2.80;;;;;;;25.19;61.70;97772.91;5059690;28;20200;-31
2022/08/24 09:44:35;;;;;;;2.77;2.53;;;;;;;25.19;61.96;97776.31;5055738;28;20221;-31
2022/08/24 09:47:29;;;;;;;2.93;2.63;;;;;;;25.19;62.03;97773.75;5066055;28;20738;-30
2022/08/24 09:50:47;;;;;;;3.00;2.80;;;;;;;25.19;61.88;97768.59;5063203;28;20300;-30
2022/08/24 09:53:42;;;;;;;2.90;2.70;;;;;;;25.18;61.55;97766.88;5035936;28;20660;-30
2022/08/24 09:56:32;;;;;;;2.63;2.33;;;;;;;25.19;62.06;97773.75;5061477;28;20222;-30
2022/08/24 09:59:05;;;;;;;3.10;2.90;;;;;;;25.19;61.85;97768.59;5069117;28;20228;-31
2022/08/24 10:02:03;;;;;;;2.67;2.47;;;;;;;25.19;62.04;97771.16;5059341;28;20679;-30
2022/08/24 10:04:48;;;;;;;2.97;2.70;;;;;;;25.19;61.67;97763.44;5053816;28;20220;-31
2022/08/24 10:07:56;;;;;;;3.33;2.50;;;;;;;25.19;62.10;97760.03;5057015;28;20200;-30
2022/08/24 10:10:50;;;;;;;4.20;2.83;;;;;;;25.18;61.85;97759.16;5061220;28;20631;-31
2022/08/24 10:13:43;;;;;;;3.47;2.70;;;;;;;25.17;61.90;97751.41;5061532;28;20638;-30
2022/08/24 10:16:16;;;;;;;2.87;2.67;;;;;;;25.19;61.66;97754.88;5060981;28;20299;-31
2022/08/24 10:18:51;;;;;;;2.77;2.57;;;;;;;25.19;62.00;97757.47;5059747;28;20235;-31
2022/08/24 10:21:27;;;;;;;3.10;2.80;;;;;;;25.20;61.74;97751.47;5067473;28;20204;-31
2022/08/24 10:24:06;;;;;;;3.13;2.83;;;;;;;25.20;61.94;97748.91;5068240;28;20291;-30
2022/08/24 10:26:38;;;;;;;2.87;2.67;;;;;;;25.20;62.02;97747.19;5067208;28;20235;-31
2022/08/24 10:29:20;;;;;;;3.50;2.77;;;;;;;25.17;61.99;97743.69;5064235;28;20231;-30
2022/08/24 10:32:06;;;;;;;3.10;2.90;;;;;;;25.20;61.94;97744.63;5059341;28;20232;-31
2022/08/24 10:34:53;;;;;;;2.97;2.70;;;;;;;25.19;61.81;97745.44;5035406;28;20259;-31
2022/08/24 10:37:31;;;;;;;3.00;2.70;;;;;;;25.20;61.54;97743.75;5068542;28;20227;-31
2022/08/24 10:40:17;;;;;;;3.70;2.60;;;;;;;25.20;61.62;97743.75;5064013;28;20716;-31
2022/08/24 10:43:34;;;;;;;2.83;2.63;;;;;;;25.19;62.11;97742.88;5051925;28;20205;-31
2022/08/24 10:46:31;;;;;;;2.73;2.53;;;;;;;25.19;62.03;97737.72;5048947;28;20254;-31
2022/08/24 10:49:25;;;;;;;2.70;2.50;;;;;;;25.19;61.61;97737.72;5064382;28;20295;-30
2022/08/24 10:52:01;;;;;;;3.13;2.70;;;;;;;25.19;61.58;97737.72;5066576;28;20706;-31
2022/08/24 10:54:28;;;;;;;3.43;2.93;;;;;;;25.20;61.77;97728.31;5061777;28;20234;-30
2022/08/24 10:57:01;;;;;;;2.67;2.47;;;;;;;25.19;62.10;97726.59;5034241;28;20377;-30
2022/08/24 10:59:36;;;;;;;3.10;2.80;;;;;;;25.19;62.02;97732.59;5053417;28;20292;-31
2022/08/24 11:02:11;;;;;;;4.00;2.67;;;;;;;25.16;61.65;97729.97;5066015;28;20208;-30
2022/08/24 11:04:38;;;;;;;2.60;2.40;;;;;;;25.19;61.94;97734.31;5058926;28;20314;-30
2022/08/24 11:07:16;;;;;;;3.03;2.53;;;;;;;25.19;61.69;97736.88;5065292;28;20706;-30
2022/08/24 11:09:52;;;;;;;3.63;2.60;;;;;;;25.20;61.73;97743.75;5061139;28;20294;-31
2022/08/24 11:12:41;;;;;;;3.17;2.83;;;;;;;25.20;61.90;97743.75;5062960;28;20499;-31
2022/08/24 11:15:17;;;;;;;3.43;2.70;;;;;;;25.20;61.86;97746.31;5062746;28;20962;-30
2022/08/24 11:17:57;;;;;;;2.87;2.67;;;;;;;25.20;61.86;97749.78;5076544;28;20242;-31
2022/08/24 11:20:47;;;;;;;4.13;3.20;;;;;;;24.64;61.66;97643.28;5056913;28;20231;-30
2022/08/24 11:23:22;;;;;;;2.97;2.67;;;;;;;25.11;61.86;97722.16;5060109;28;20262;-30
2022/08/24 11:26:01;;;;;;;3.23;2.87;;;;;;;25.19;61.88;97735.16;5051468;28;20266;-31
2022/08/24 11:28:37;;;;;;;3.27;2.83;;;;;;;25.19;61.70;97737.72;5058104;28;20633;-30
2022/08/24 11:31:04;;;;;;;4.20;3.20;;;;;;;25.20;61.61;97744.63;5066684;28;20306;-30
2022/08/24 11:33:34;;;;;;;5.03;3.20;;;;;;;25.17;61.91;97729.13;5036016;28;20703;-30
2022/08/24 11:36:01;;;;;;;3.97;3.00;;;;;;;25.20;61.72;97741.19;5063515;28;20252;-31
2022/08/24 11:38:30;;;;;;;3.73;2.70;;;;;;;25.19;61.82;97726.59;5069134;28;20283;-30
2022/08/24 11:41:23;;;;;;;2.90;2.70;;;;;;;25.19;61.90;97727.44;5066315;28;20197;-31
2022/08/24 11:44:04;;;;;;;4.00;3.10;;;;;;;25.20;61.61;97725.75;5060950;28;20205;-31
2022/08/24 11:47:02;;;;;;;5.33;3.30;;;;;;;25.19;61.90;97729.16;5062706;28;20282;-31
2022/08/24 11:49:41;;;;;;;3.93;2.90;;;;;;;25.20;61.74;97725.75;5062060;28;20235;-31
2022/08/24 11:52:33;;;;;;;3.80;3.00;;;;;;;25.17;61.66;97717.97;5064567;28;20222;-31
2022/08/24 11:55:15;;;;;;;3.10;2.80;;;;;;;25.19;61.71;97724.88;5051301;28;20283;-31
2022/08/24 11:58:11;;;;;;;3.40;2.90;;;;;;;25.19;61.86;97727.44;5061727;28;20236;-30
2022/08/24 12:00:57;;;;;;;4.70;2.97;;;;;;;25.19;61.72;97727.44;5045519;28;20732;-30
2022/08/24 12:03:39;;;;;;;3.77;2.80;;;;;;;25.18;61.83;97718.00;5052611;28;20362;-30
2022/08/24 12:06:30;;;;;;;4.33;2.87;;;;;;;25.10;61.97;97712.72;5058784;28;20252;-30
2022/08/24 12:09:06;;;;;;;3.43;2.80;;;;;;;25.19;62.03;97726.59;5053944;28;20561;-30
2022/08/24 12:12:03;;;;;;;3.67;2.60;;;;;;;25.19;62.28;97727.44;5059885;28;20290;-30
2022/08/24 12:14:40;;;;;;;4.47;3.30;;;;;;;25.11;61.94;97703.31;5057522;28;20320;-30
2022/08/24 12:17:31;;;;;;;3.27;2.90;;;;;;;25.17;61.82;97713.72;5065379;28;20236;-30
2022/08/24 12:20:35;;;;;;;2.90;2.60;;;;;;;25.19;61.98;97717.16;5059582;28;20291;-30
2022/08/24 12:23:07;;;;;;;2.97;2.70;;;;;;;25.17;62.06;97714.56;5063171;28;20242;-30
2022/08/24 12:28:23;;;;;;;3.80;3.20;;;;;;;25.18;61.61;97707.72;5063093;28;20244;-31
2022/08/24 12:30:50;;;;;;;3.17;2.80;;;;;;;25.19;62.00;97703.44;5048643;28;20204;-31
2022/08/24 12:33:17;;;;;;;3.37;3.00;;;;;;;25.18;62.01;97712.84;5064631;28;20623;-30
2022/08/24 12:35:51;;;;;;;3.40;2.90;;;;;;;25.19;62.17;97706.88;5042952;28;20636;-30
2022/08/24 12:38:21;;;;;;;3.60;2.90;;;;;;;25.19;61.69;97711.16;5060262;28;20291;-30
2022/08/24 12:40:55;;;;;;;2.73;2.53;;;;;;;25.19;62.17;97709.44;5068042;28;20200;-30
2022/08/24 12:43:34;;;;;;;3.00;2.67;;;;;;;25.19;62.12;97708.59;5062041;28;20658;-30
2022/08/24 12:46:02;;;;;;;2.97;2.50;;;;;;;25.18;62.02;97700.00;5068015;28;20606;-31
2022/08/24 12:48:38;;;;;;;4.40;2.70;;;;;;;25.06;61.96;97681.78;5061995;28;20227;-30
2022/08/24 12:51:17;;;;;;;3.33;2.70;;;;;;;25.17;61.87;97699.13;5062664;28;20228;-30
2022/08/24 12:53:46;;;;;;;3.27;2.80;;;;;;;25.19;62.06;97706.03;5058450;28;20259;-31
2022/08/24 12:56:45;;;;;;;3.03;2.73;;;;;;;25.17;62.03;97693.97;5067253;28;20683;-31
2022/08/24 12:59:28;;;;;;;3.57;2.93;;;;;;;25.17;62.21;97698.28;5054198;28;20236;-30
2022/08/24 13:02:06;;;;;;;3.60;2.90;;;;;;;25.17;61.91;97699.13;5064227;28;20638;-31
2022/08/24 13:04:50;;;;;;;3.17;2.63;;;;;;;25.18;62.31;97700.00;5067459;28;20223;-31
2022/08/24 13:07:22;;;;;;;3.20;2.50;;;;;;;25.17;62.20;97691.41;5064897;28;20239;-30
2022/08/24 13:09:52;;;;;;;3.13;2.80;;;;;;;25.18;62.28;97702.56;5067455;28;20692;-30
2022/08/24 13:12:42;;;;;;;2.83;2.57;;;;;;;25.17;62.19;97704.25;5061321;28;20200;-30
2022/08/24 13:15:22;;;;;;;3.00;2.70;;;;;;;25.17;62.11;97693.13;5067110;28;20336;-30
2022/08/24 13:17:50;;;;;;;3.20;2.77;;;;;;;25.17;62.00;97688.84;5067942;28;20713;-31
2022/08/24 13:20:20;;;;;;;3.27;2.87;;;;;;;25.17;61.99;97682.84;5066104;28;20227;-31
2022/08/24 13:23:03;;;;;;;2.80;2.60;;;;;;;25.17;61.90;97680.28;5072450;28;20231;-30
2022/08/24 13:25:54;;;;;;;2.90;2.60;;;;;;;25.17;62.13;97682.84;5072881;28;20773;-31
2022/08/24 13:28:21;;;;;;;2.70;2.50;;;;;;;25.17;62.31;97681.13;5068815;28;20220;-31
2022/08/24 13:31:01;;;;;;;2.90;2.67;;;;;;;25.17;62.14;97677.69;5074255;28;20639;-31
2022/08/24 13:33:37;;;;;;;2.73;2.53;;;;;;;25.17;62.12;97685.41;5068907;28;20230;-31
2022/08/24 13:36:05;;;;;;;3.33;3.03;;;;;;;25.13;61.88;97672.47;5073978;28;20395;-30
2022/08/24 13:38:43;;;;;;;3.10;2.80;;;;;;;24.56;61.90;97572.00;5072738;28;20291;-31
2022/08/24 13:41:27;;;;;;;2.70;2.50;;;;;;;25.17;62.03;97682.84;5061382;28;20979;-30
2022/08/24 13:43:59;;;;;;;2.73;2.53;;;;;;;25.15;62.53;97676.78;5062035;28;20295;-31
2022/08/24 13:46:46;;;;;;;2.90;2.60;;;;;;;25.17;62.13;97683.69;5067778;28;20251;-31
2022/08/24 13:49:30;;;;;;;2.93;2.50;;;;;;;25.17;62.34;97684.53;5072719;28;20217;-31
2022/08/24 13:52:12;;;;;;;3.00;2.70;;;;;;;25.17;62.38;97679.38;5071932;28;20294;-31
2022/08/24 13:55:03;;;;;;;2.73;2.53;;;;;;;25.17;62.25;97680.28;5064625;28;20701;-31
2022/08/24 13:57:40;;;;;;;3.57;2.50;;;;;;;25.17;62.41;97670.81;5048453;28;20629;-30
2022/08/24 14:00:11;;;;;;;2.50;2.30;;;;;;;25.17;62.19;97674.25;5059734;28;20681;-31
2022/08/24 14:02:51;;;;;;;2.80;2.60;;;;;;;25.17;62.08;97671.69;5064492;28;20210;-31
2022/08/24 14:05:42;;;;;;;4.67;2.63;;;;;;;25.11;61.84;97663.00;5065770;28;20298;-32
2022/08/24 14:08:43;;;;;;;2.90;2.60;;;;;;;25.17;62.53;97667.41;5057468;28;20207;-31
2022/08/24 14:11:18;;;;;;;2.70;2.50;;;;;;;25.17;62.22;97683.69;5065923;28;20773;-30
2022/08/24 14:14:12;;;;;;;2.60;2.40;;;;;;;25.17;62.45;97676.81;5061282;28;20323;-31
2022/08/24 14:19:29;;;;;;;3.20;2.90;;;;;;;25.17;62.18;97675.97;5073748;28;20257;-31
2022/08/24 14:22:02;;;;;;;2.60;2.40;;;;;;;25.11;62.38;97664.72;5064395;28;20235;-31
2022/08/24 14:24:53;;;;;;;2.80;2.60;;;;;;;25.16;62.15;97673.38;5072103;28;20744;-31
2022/08/24 14:27:55;;;;;;;2.60;2.40;;;;;;;25.17;62.30;97663.97;5065955;28;20239;-31
2022/08/24 14:30:22;;;;;;;2.37;2.17;;;;;;;25.16;62.12;97665.66;5050769;28;20235;-31
2022/08/24 14:32:57;;;;;;;2.60;2.40;;;;;;;25.17;61.75;97662.25;5065913;28;20240;-31
2022/08/24 14:35:35;;;;;;;2.63;2.30;;;;;;;25.17;62.15;97663.97;5059132;28;20307;-31
2022/08/24 14:38:23;;;;;;;2.80;2.57;;;;;;;25.17;62.09;97657.13;5067069;28;20269;-31
2022/08/24 14:41:13;;;;;;;2.73;2.53;;;;;;;25.13;62.10;97648.47;5063118;28;20243;-31